createdAt,value
2023-04-07T00:01:06.806Z,101676.06
2023-04-07T00:03:34.837Z,101668.88
2023-04-07T00:06:02.529Z,101671.25
2023-04-07T00:08:30.338Z,101677.69
2023-04-07T00:10:58.475Z,101677.66
2023-04-07T00:13:26.261Z,101676.72
2023-04-07T00:15:55.462Z,101685.38
2023-04-07T00:18:23.097Z,101677.63
2023-04-07T00:20:50.685Z,101675.88
2023-04-07T00:23:18.319Z,101672.94
2023-04-07T00:25:46.360Z,101674.09
2023-04-07T00:28:13.955Z,101667.00
2023-04-07T00:30:41.685Z,101654.53
2023-04-07T00:33:10.728Z,101660.53
2023-04-07T00:35:38.407Z,101671.47
2023-04-07T00:38:06.060Z,101668.47
2023-04-07T00:40:33.705Z,101667.69
2023-04-07T00:43:01.310Z,101662.38
2023-04-07T00:45:28.999Z,101677.06
2023-04-07T00:47:58.218Z,101681.44
2023-04-07T00:50:27.623Z,101670.38
2023-04-07T00:52:57.258Z,101656.84
2023-04-07T00:55:24.856Z,101669.75
2023-04-07T00:57:52.790Z,101660.47
2023-04-07T01:00:20.686Z,101671.75
2023-04-07T01:02:58.704Z,101671.38
2023-04-07T01:05:37.424Z,101674.53
2023-04-07T01:08:14.009Z,101664.88
2023-04-07T01:10:50.667Z,101673.56
2023-04-07T01:13:27.813Z,101656.22
2023-04-07T01:15:59.303Z,101649.44
2023-04-07T01:18:32.368Z,101658.47
2023-04-07T01:21:05.736Z,101655.22
2023-04-07T01:24:02.259Z,101657.03
2023-04-07T01:26:31.757Z,101648.06
2023-04-07T01:29:23.376Z,101660.97
2023-04-07T01:31:52.199Z,101668.03
2023-04-07T01:34:20.754Z,101655.72
2023-04-07T01:36:50.887Z,101661.63
2023-04-07T01:39:19.629Z,101669.03
2023-04-07T01:41:48.396Z,101658.31
2023-04-07T01:44:16.955Z,101660.78
2023-04-07T01:46:46.007Z,101668.06
2023-04-07T01:49:14.456Z,101670.56
2023-04-07T01:51:43.358Z,101634.91
2023-04-07T01:54:11.123Z,101657.72
2023-04-07T01:56:38.791Z,101674.94
2023-04-07T01:59:06.698Z,101667.91
2023-04-07T02:01:34.465Z,101663.28
2023-04-07T02:04:09.874Z,101655.31
2023-04-07T02:06:45.622Z,101673.50
2023-04-07T02:09:17.721Z,101684.78
2023-04-07T02:11:47.066Z,101684.25
2023-04-07T02:14:15.566Z,101680.66
2023-04-07T02:16:44.912Z,101675.84
2023-04-07T02:19:15.390Z,101675.78
2023-04-07T02:21:43.505Z,101668.63
2023-04-07T02:24:12.799Z,101673.28
2023-04-07T02:26:40.941Z,101668.09
2023-04-07T02:29:08.541Z,101677.63
2023-04-07T02:31:36.260Z,101677.22
2023-04-07T02:34:03.874Z,101673.22
2023-04-07T02:36:32.863Z,101676.69
2023-04-07T02:39:00.484Z,101673.91
2023-04-07T02:41:28.466Z,101672.63
2023-04-07T02:43:56.391Z,101679.63
2023-04-07T02:46:24.344Z,101685.06
2023-04-07T02:48:52.206Z,101686.28
2023-04-07T02:51:19.903Z,101683.19
2023-04-07T02:53:48.850Z,101688.09
2023-04-07T02:56:16.938Z,101676.16
2023-04-07T02:58:44.563Z,101677.94
2023-04-07T03:01:12.227Z,101682.75
2023-04-07T03:03:42.240Z,101698.44
2023-04-07T03:06:10.006Z,101692.38
2023-04-07T03:08:37.634Z,101688.38
2023-04-07T03:11:06.829Z,101687.34
2023-04-07T03:13:34.503Z,101684.66
2023-04-07T03:16:02.437Z,101675.00
2023-04-07T03:18:30.075Z,101685.00
2023-04-07T03:20:57.671Z,101698.25
2023-04-07T03:23:25.353Z,101698.59
2023-04-07T03:25:53.002Z,101691.19
2023-04-07T03:28:22.330Z,101695.31
2023-04-07T03:30:49.972Z,101705.16
2023-04-07T03:33:17.843Z,101699.47
2023-04-07T03:35:45.546Z,101705.72
2023-04-07T03:38:13.178Z,101703.97
2023-04-07T03:40:40.852Z,101710.09
2023-04-07T03:43:12.487Z,101707.09
2023-04-07T03:45:41.670Z,101708.97
2023-04-07T03:48:11.813Z,101712.06
2023-04-07T03:50:40.195Z,101703.22
2023-04-07T03:53:07.839Z,101700.41
2023-04-07T03:55:35.742Z,101712.47
2023-04-07T03:58:03.480Z,101720.94
2023-04-07T04:00:33.089Z,101711.34
2023-04-07T04:03:02.595Z,101723.97
2023-04-07T04:05:30.269Z,101710.00
2023-04-07T04:07:57.884Z,101719.75
2023-04-07T04:10:25.716Z,101723.44
2023-04-07T04:12:53.307Z,101715.94
2023-04-07T04:15:20.949Z,101716.28
2023-04-07T04:17:48.630Z,101722.06
2023-04-07T04:20:17.579Z,101737.44
2023-04-07T04:22:45.206Z,101713.50
2023-04-07T04:25:12.779Z,101740.06
2023-04-07T04:27:40.643Z,101739.63
2023-04-07T04:30:09.564Z,101735.72
2023-04-07T04:32:37.213Z,101732.44
2023-04-07T04:35:05.370Z,101748.91
2023-04-07T04:37:34.791Z,101734.84
2023-04-07T04:40:02.393Z,101744.53
2023-04-07T04:42:33.752Z,101758.22
2023-04-07T04:45:01.451Z,101756.28
2023-04-07T04:47:29.131Z,101752.28
2023-04-07T04:49:56.724Z,101748.31
2023-04-07T04:52:24.338Z,101748.94
2023-04-07T04:54:53.348Z,101756.84
2023-04-07T04:57:21.014Z,101769.41
2023-04-07T04:59:48.828Z,101766.25
2023-04-07T05:02:16.538Z,101775.69
2023-04-07T05:04:44.287Z,101766.16
2023-04-07T05:07:23.882Z,101776.50
2023-04-07T05:09:52.955Z,101713.50
2023-04-07T05:12:20.587Z,101761.69
2023-04-07T05:14:48.161Z,101770.44
2023-04-07T05:17:15.816Z,101783.22
2023-04-07T05:19:43.928Z,101771.78
2023-04-07T05:22:11.571Z,101776.72
2023-04-07T05:24:39.298Z,101798.88
2023-04-07T05:27:08.379Z,101789.78
2023-04-07T05:29:36.247Z,101778.84
2023-04-07T05:32:03.883Z,101786.81
2023-04-07T05:34:31.688Z,101790.22
2023-04-07T05:36:59.460Z,101796.09
2023-04-07T05:39:27.171Z,101790.38
2023-04-07T05:41:54.814Z,101794.44
2023-04-07T05:44:23.843Z,101799.28
2023-04-07T05:46:51.579Z,101790.97
2023-04-07T05:49:20.612Z,101789.84
2023-04-07T05:51:49.178Z,101802.28
2023-04-07T05:54:17.068Z,101794.94
2023-04-07T05:56:44.658Z,101809.94
2023-04-07T05:59:12.236Z,101805.41
2023-04-07T06:01:41.411Z,101800.81
2023-04-07T06:04:09.094Z,101806.63
2023-04-07T06:06:36.740Z,101795.38
2023-04-07T06:09:05.817Z,101800.63
2023-04-07T06:11:34.629Z,101811.75
2023-04-07T06:14:02.246Z,101815.41
2023-04-07T06:16:30.012Z,101819.06
2023-04-07T06:18:59.030Z,101799.75
2023-04-07T06:21:27.321Z,101800.22
2023-04-07T06:23:54.978Z,101803.91
2023-04-07T06:26:23.501Z,101797.06
2023-04-07T06:28:51.120Z,101801.41
2023-04-07T06:31:18.985Z,101810.09
2023-04-07T06:33:47.097Z,101811.75
2023-04-07T06:36:16.474Z,101810.97
2023-04-07T06:38:44.605Z,101816.97
2023-04-07T06:41:16.826Z,101811.84
2023-04-07T06:43:44.766Z,101830.66
2023-04-07T06:46:12.488Z,101828.66
2023-04-07T06:48:40.416Z,101812.28
2023-04-07T06:51:08.031Z,101833.38
2023-04-07T06:53:36.986Z,101832.38
2023-04-07T06:56:06.084Z,101827.78
2023-04-07T06:58:33.833Z,101816.44
2023-04-07T07:01:01.874Z,101840.19
2023-04-07T07:03:30.065Z,101826.53
2023-04-07T07:05:58.131Z,101821.91
2023-04-07T07:08:26.311Z,101822.13
2023-04-07T07:10:55.793Z,101839.66
2023-04-07T07:13:26.105Z,101841.72
2023-04-07T07:15:54.370Z,101834.66
2023-04-07T07:18:22.098Z,101818.34
2023-04-07T07:20:50.697Z,101822.97
2023-04-07T07:23:18.354Z,101827.03
2023-04-07T07:25:46.236Z,101825.91
2023-04-07T07:28:15.451Z,101834.25
2023-04-07T07:30:43.187Z,101851.22
2023-04-07T07:33:10.897Z,101841.50
2023-04-07T07:35:38.878Z,101839.50
2023-04-07T07:38:06.791Z,101843.88
2023-04-07T07:40:34.625Z,101847.41
2023-04-07T07:43:02.363Z,101834.47
2023-04-07T07:45:31.368Z,101845.25
2023-04-07T07:47:59.038Z,101853.81
2023-04-07T07:50:27.125Z,101843.72
2023-04-07T07:52:54.729Z,101845.41
2023-04-07T07:55:22.502Z,101855.34
2023-04-07T07:57:50.136Z,101877.69
2023-04-07T08:00:18.027Z,101855.97
2023-04-07T08:02:47.094Z,101862.03
2023-04-07T08:05:14.726Z,101881.34
2023-04-07T08:07:43.034Z,101881.06
2023-04-07T08:10:10.904Z,101882.75
2023-04-07T08:12:38.578Z,101884.41
2023-04-07T08:15:07.763Z,101877.81
2023-04-07T08:17:35.383Z,101861.47
2023-04-07T08:20:05.214Z,101858.78
2023-04-07T08:22:33.274Z,101868.59
2023-04-07T08:25:00.892Z,101880.50
2023-04-07T08:27:28.534Z,101876.63
2023-04-07T08:30:03.887Z,101877.69
2023-04-07T08:32:38.923Z,101876.16
2023-04-07T08:35:08.645Z,101875.22
2023-04-07T08:37:36.717Z,101885.25
2023-04-07T08:40:05.217Z,101879.75
2023-04-07T08:42:34.632Z,101880.19
2023-04-07T08:45:05.710Z,101897.09
2023-04-07T08:47:35.277Z,101884.31
2023-04-07T08:50:04.848Z,101874.19
2023-04-07T08:52:42.742Z,101875.41
2023-04-07T08:55:10.922Z,101888.03
2023-04-07T08:57:39.085Z,101856.19
2023-04-07T09:00:07.862Z,101887.19
2023-04-07T09:02:36.763Z,101886.69
2023-04-07T09:05:05.795Z,101900.13
2023-04-07T09:07:36.491Z,101891.06
2023-04-07T09:10:04.628Z,101893.53
2023-04-07T09:12:32.723Z,101886.75
2023-04-07T09:15:00.946Z,101905.38
2023-04-07T09:17:29.638Z,101913.09
2023-04-07T09:19:58.311Z,101907.81
2023-04-07T09:22:42.345Z,101899.63
2023-04-07T09:25:17.354Z,101905.25
2023-04-07T09:27:59.578Z,101912.47
2023-04-07T09:30:28.791Z,101885.69
2023-04-07T09:32:57.126Z,101898.69
2023-04-07T09:35:25.006Z,101903.78
2023-04-07T09:38:04.738Z,101891.22
2023-04-07T09:40:32.449Z,101901.72
2023-04-07T09:43:00.459Z,101898.47
2023-04-07T09:45:34.502Z,101896.59
2023-04-07T09:48:07.546Z,101889.75
2023-04-07T09:50:36.875Z,101899.84
2023-04-07T09:53:05.846Z,101887.47
2023-04-07T09:55:34.929Z,101905.56
2023-04-07T09:58:06.284Z,101896.16
2023-04-07T10:00:34.344Z,101901.81
2023-04-07T10:03:03.639Z,101892.00
2023-04-07T10:05:33.667Z,101888.25
2023-04-07T10:08:02.997Z,101899.53
2023-04-07T10:10:32.739Z,101893.00
2023-04-07T10:13:00.506Z,101900.97
2023-04-07T10:15:28.365Z,101902.25
2023-04-07T10:17:57.266Z,101898.69
2023-04-07T10:20:25.393Z,101860.13
2023-04-07T10:22:54.729Z,101902.06
2023-04-07T10:25:25.476Z,101903.19
2023-04-07T10:28:00.326Z,101900.59
2023-04-07T10:30:31.140Z,101909.63
2023-04-07T10:32:59.384Z,101909.66
2023-04-07T10:35:28.421Z,101910.78
2023-04-07T10:38:13.904Z,101918.59
2023-04-07T10:40:42.586Z,101910.81
2023-04-07T10:43:12.256Z,101915.38
2023-04-07T10:46:00.499Z,101916.06
2023-04-07T10:48:33.254Z,101911.16
2023-04-07T10:51:18.271Z,101908.13
2023-04-07T10:54:18.751Z,101902.31
2023-04-07T10:57:13.337Z,101911.31
2023-04-07T11:00:04.364Z,101907.94
2023-04-07T11:02:36.873Z,101921.69
2023-04-07T11:05:04.997Z,101919.75
2023-04-07T11:07:47.359Z,101912.63
2023-04-07T11:10:16.453Z,101906.72
2023-04-07T11:12:44.550Z,101898.16
2023-04-07T11:15:19.402Z,101898.41
2023-04-07T11:17:48.616Z,101900.00
2023-04-07T11:20:16.390Z,101848.88
2023-04-07T11:22:44.129Z,101891.72
2023-04-07T11:25:27.716Z,101877.75
2023-04-07T11:27:55.370Z,101899.44
2023-04-07T11:30:23.113Z,101886.47
2023-04-07T11:32:52.615Z,101899.22
2023-04-07T11:35:20.761Z,101888.13
2023-04-07T11:37:48.401Z,101887.94
2023-04-07T11:40:33.456Z,101887.00
2023-04-07T11:43:01.435Z,101899.03
2023-04-07T11:45:29.099Z,101879.75
2023-04-07T11:47:58.074Z,101894.28
2023-04-07T11:50:42.713Z,101889.22
2023-04-07T11:53:11.148Z,101889.75
2023-04-07T11:55:40.340Z,101892.94
2023-04-07T11:58:10.038Z,101888.09
2023-04-07T12:00:38.492Z,101905.72
2023-04-07T12:03:14.745Z,101910.28
2023-04-07T12:05:45.950Z,101899.50
2023-04-07T12:08:15.482Z,101889.78
2023-04-07T12:10:43.780Z,101877.09
2023-04-07T12:13:11.419Z,101904.91
2023-04-07T12:15:39.129Z,101904.25
2023-04-07T12:18:06.893Z,101908.13
2023-04-07T12:20:37.509Z,101892.47
2023-04-07T12:23:05.497Z,101903.41
2023-04-07T12:25:33.301Z,101900.69
2023-04-07T12:28:01.234Z,101903.09
2023-04-07T12:30:28.911Z,101895.44
2023-04-07T12:32:56.601Z,101906.13
2023-04-07T12:35:24.447Z,101900.56
2023-04-07T12:37:53.623Z,101917.84
2023-04-07T12:40:21.400Z,101906.19
2023-04-07T12:42:49.114Z,101892.44
2023-04-07T12:45:16.900Z,101912.31
2023-04-07T12:47:45.734Z,101900.56
2023-04-07T12:50:13.455Z,101919.69
2023-04-07T12:52:41.050Z,101863.19
2023-04-07T12:55:10.189Z,101904.56
2023-04-07T12:57:38.763Z,101900.63
2023-04-07T13:00:08.261Z,101907.13
2023-04-07T13:02:36.896Z,101909.72
2023-04-07T13:05:04.942Z,101907.97
2023-04-07T13:07:34.988Z,101905.16
2023-04-07T13:10:02.682Z,101910.84
2023-04-07T13:12:31.737Z,101902.78
2023-04-07T13:15:00.398Z,101897.72
2023-04-07T13:17:28.982Z,101904.50
2023-04-07T13:19:57.265Z,101906.91
2023-04-07T13:22:25.315Z,101915.88
2023-04-07T13:24:52.961Z,101900.91
2023-04-07T13:27:21.159Z,101910.09
2023-04-07T13:29:50.235Z,101918.59
2023-04-07T13:32:18.434Z,101909.88
2023-04-07T13:34:46.535Z,101902.56
2023-04-07T13:37:14.447Z,101906.38
2023-04-07T13:39:42.094Z,101901.88
2023-04-07T13:42:11.540Z,101904.44
2023-04-07T13:44:40.432Z,101903.31
2023-04-07T13:47:09.469Z,101901.25
2023-04-07T13:49:38.143Z,101897.97
2023-04-07T13:52:05.766Z,101903.94
2023-04-07T13:54:33.771Z,101907.06
2023-04-07T13:57:01.880Z,101912.13
2023-04-07T13:59:29.531Z,101906.75
2023-04-07T14:01:57.310Z,101908.41
2023-04-07T14:04:26.439Z,101909.75
2023-04-07T14:06:54.513Z,101904.47
2023-04-07T14:09:22.134Z,101911.81
2023-04-07T14:11:50.028Z,101905.59
2023-04-07T14:14:17.626Z,101902.31
2023-04-07T14:16:45.561Z,101903.19
2023-04-07T14:19:13.224Z,101895.53
2023-04-07T14:21:42.204Z,101914.94
2023-04-07T14:24:09.821Z,101904.09
2023-04-07T14:26:37.427Z,101905.78
2023-04-07T14:29:05.021Z,101907.28
2023-04-07T14:31:32.643Z,101912.59
2023-04-07T14:34:00.261Z,101901.16
2023-04-07T14:36:28.316Z,101921.13
2023-04-07T14:38:57.334Z,101894.91
2023-04-07T14:41:25.151Z,101906.66
2023-04-07T14:43:56.243Z,101917.94
2023-04-07T14:46:24.334Z,101912.03
2023-04-07T14:48:52.859Z,101922.84
2023-04-07T14:51:21.288Z,101878.41
2023-04-07T14:53:53.437Z,101920.41
2023-04-07T14:56:22.783Z,101919.88
2023-04-07T14:58:50.481Z,101924.44
2023-04-07T15:01:18.692Z,101926.38
2023-04-07T15:03:47.272Z,101924.69
2023-04-07T15:06:16.729Z,101925.56
2023-04-07T15:08:44.594Z,101921.28
2023-04-07T15:11:12.296Z,101932.63
2023-04-07T15:13:41.310Z,101932.50
2023-04-07T15:16:10.840Z,101936.44
2023-04-07T15:18:40.928Z,101936.94
2023-04-07T15:21:09.085Z,101949.97
2023-04-07T15:23:38.673Z,101940.53
2023-04-07T15:26:06.587Z,101960.34
2023-04-07T15:28:34.232Z,101959.88
2023-04-07T15:31:03.402Z,101969.38
2023-04-07T15:33:31.105Z,101971.03
2023-04-07T15:35:59.335Z,101957.28
2023-04-07T15:38:27.049Z,101973.91
2023-04-07T15:40:54.670Z,101971.28
2023-04-07T15:43:22.347Z,101976.53
2023-04-07T15:45:49.990Z,101983.34
2023-04-07T15:48:19.130Z,101996.38
2023-04-07T15:50:46.747Z,101983.41
2023-04-07T15:53:14.727Z,101974.81
2023-04-07T15:55:44.139Z,101985.16
2023-04-07T15:58:11.967Z,101995.56
2023-04-07T16:00:40.292Z,101984.91
2023-04-07T16:03:08.283Z,101993.38
2023-04-07T16:05:38.918Z,101980.78
2023-04-07T16:08:06.606Z,101993.81
2023-04-07T16:10:34.465Z,101991.25
2023-04-07T16:13:02.164Z,102009.38
2023-04-07T16:15:40.048Z,101998.09
2023-04-07T16:18:10.819Z,102003.31
2023-04-07T16:20:39.806Z,102011.09
2023-04-07T16:23:07.458Z,102022.31
2023-04-07T16:25:35.190Z,102017.13
2023-04-07T16:28:02.883Z,102025.75
2023-04-07T16:30:30.633Z,102018.88
2023-04-07T16:33:00.186Z,102026.63
2023-04-07T16:35:27.944Z,102011.91
2023-04-07T16:38:01.451Z,102025.75
2023-04-07T16:40:29.118Z,102024.72
2023-04-07T16:42:56.741Z,102022.31
2023-04-07T16:45:24.402Z,102032.59
2023-04-07T16:47:52.133Z,102036.13
2023-04-07T16:50:20.020Z,102033.53
2023-04-07T16:52:47.878Z,102034.34
2023-04-07T16:55:16.907Z,102046.38
2023-04-07T16:57:44.518Z,102056.63
2023-04-07T17:00:13.297Z,102068.88
2023-04-07T17:02:40.987Z,102057.28
2023-04-07T17:05:09.638Z,102070.63
2023-04-07T17:07:37.277Z,102076.53
2023-04-07T17:10:05.188Z,102087.75
2023-04-07T17:12:34.136Z,102077.47
2023-04-07T17:15:01.721Z,102091.94
2023-04-07T17:17:29.340Z,102084.81
2023-04-07T17:19:57.565Z,102094.94
2023-04-07T17:22:25.229Z,102075.63
2023-04-07T17:24:53.157Z,102113.75
2023-04-07T17:27:20.804Z,102111.50
2023-04-07T17:29:49.768Z,102112.94
2023-04-07T17:32:17.337Z,102119.94
2023-04-07T17:34:44.968Z,102114.41
2023-04-07T17:37:12.607Z,102131.31
2023-04-07T17:39:40.591Z,102114.19
2023-04-07T17:42:10.842Z,102121.88
2023-04-07T17:44:38.496Z,102123.41
2023-04-07T17:47:07.439Z,102127.59
2023-04-07T17:49:35.031Z,102136.84
2023-04-07T17:52:02.729Z,102137.41
2023-04-07T17:54:30.340Z,102138.28
2023-04-07T17:56:58.040Z,102144.69
2023-04-07T17:59:25.733Z,102145.06
2023-04-07T18:01:53.447Z,102149.53
2023-04-07T18:04:22.590Z,102155.34
2023-04-07T18:06:50.280Z,102162.16
2023-04-07T18:09:18.212Z,102167.47
2023-04-07T18:11:45.782Z,102159.34
2023-04-07T18:14:13.362Z,102156.69
2023-04-07T18:16:41.009Z,102176.53
2023-04-07T18:19:08.590Z,102157.25
2023-04-07T18:21:37.745Z,102176.34
2023-04-07T18:24:05.458Z,102170.53
2023-04-07T18:26:33.423Z,102166.75
2023-04-07T18:29:01.479Z,102179.84
2023-04-07T18:31:29.167Z,102182.16
2023-04-07T18:33:56.810Z,102178.06
2023-04-07T18:36:27.260Z,102191.03
2023-04-07T18:38:56.316Z,102191.28
2023-04-07T18:41:23.937Z,102196.41
2023-04-07T18:43:51.830Z,102185.97
2023-04-07T18:46:19.588Z,102149.81
2023-04-07T18:48:47.212Z,102202.84
2023-04-07T18:51:14.894Z,102208.91
2023-04-07T18:53:42.491Z,102211.69
2023-04-07T18:56:11.478Z,102200.03
2023-04-07T18:58:43.859Z,102217.28
2023-04-07T19:01:12.124Z,102210.44
2023-04-07T19:03:40.589Z,102212.97
2023-04-07T19:06:08.750Z,102210.00
2023-04-07T19:08:37.210Z,102214.44
2023-04-07T19:11:05.430Z,102232.69
2023-04-07T19:13:34.372Z,102218.56
2023-04-07T19:16:02.454Z,102226.88
2023-04-07T19:18:31.794Z,102232.72
2023-04-07T19:20:59.513Z,102232.78
2023-04-07T19:23:27.297Z,102223.38
2023-04-07T19:25:55.028Z,102241.31
2023-04-07T19:28:22.956Z,102247.47
2023-04-07T19:30:51.912Z,102237.44
2023-04-07T19:33:19.516Z,102237.78
2023-04-07T19:35:47.169Z,102258.50
2023-04-07T19:38:14.877Z,102243.31
2023-04-07T19:40:42.444Z,102249.63
2023-04-07T19:43:10.108Z,102248.19
2023-04-07T19:45:37.809Z,102248.78
2023-04-07T19:48:07.912Z,102238.22
2023-04-07T19:50:41.164Z,102229.34
2023-04-07T19:53:08.783Z,102235.22
2023-04-07T19:55:37.093Z,102229.75
2023-04-07T19:58:04.749Z,102227.84
2023-04-07T20:00:33.531Z,102244.03
2023-04-07T20:03:01.348Z,102256.28
2023-04-07T20:05:30.736Z,102260.41
2023-04-07T20:07:58.447Z,102247.59
2023-04-07T20:10:26.487Z,102258.66
2023-04-07T20:12:54.132Z,102239.84
2023-04-07T20:15:24.023Z,102249.69
2023-04-07T20:17:51.859Z,102258.41
2023-04-07T20:20:19.527Z,102262.81
2023-04-07T20:22:48.502Z,102252.56
2023-04-07T20:25:16.109Z,102261.22
2023-04-07T20:27:45.431Z,102257.22
2023-04-07T20:30:13.176Z,102255.59
2023-04-07T20:32:41.115Z,102260.72
2023-04-07T20:35:10.838Z,102268.50
2023-04-07T20:37:38.540Z,102277.66
2023-04-07T20:40:09.095Z,102257.13
2023-04-07T20:42:36.741Z,102256.38
2023-04-07T20:45:06.342Z,102265.34
2023-04-07T20:47:35.978Z,102254.47
2023-04-07T20:50:03.840Z,102268.44
2023-04-07T20:52:31.417Z,102263.59
2023-04-07T20:54:59.079Z,102262.03
2023-04-07T20:57:28.317Z,102268.63
2023-04-07T20:59:55.929Z,102264.28
2023-04-07T21:02:23.760Z,102272.13
2023-04-07T21:04:51.829Z,102264.34
2023-04-07T21:07:19.490Z,102259.53
2023-04-07T21:09:47.065Z,102267.91
2023-04-07T21:12:14.697Z,102258.97
2023-04-07T21:14:43.772Z,102262.09
2023-04-07T21:17:11.436Z,102271.59
2023-04-07T21:19:39.086Z,102274.03
2023-04-07T21:22:06.674Z,102264.22
2023-04-07T21:24:34.259Z,102261.72
2023-04-07T21:27:02.113Z,102250.66
2023-04-07T21:29:31.422Z,102220.91
2023-04-07T21:32:00.756Z,102257.97
2023-04-07T21:34:28.523Z,102252.38
2023-04-07T21:36:56.160Z,102249.19
2023-04-07T21:39:23.762Z,102259.13
2023-04-07T21:41:51.452Z,102253.16
2023-04-07T21:44:20.164Z,102255.78
2023-04-07T21:46:47.985Z,102258.38
2023-04-07T21:49:17.933Z,102245.84
2023-04-07T21:51:45.582Z,102259.19
2023-04-07T21:54:13.744Z,102246.88
2023-04-07T21:56:41.450Z,102256.91
2023-04-07T21:59:09.119Z,102259.72
2023-04-07T22:01:37.457Z,102237.22
2023-04-07T22:04:05.286Z,102263.03
2023-04-07T22:06:34.320Z,102258.56
2023-04-07T22:09:02.538Z,102243.13
2023-04-07T22:11:30.423Z,102249.00
2023-04-07T22:13:58.043Z,102257.03
2023-04-07T22:16:25.971Z,102256.38
2023-04-07T22:18:53.891Z,102256.53
2023-04-07T22:21:21.679Z,102260.91
2023-04-07T22:23:50.790Z,102255.75
2023-04-07T22:26:18.606Z,102250.47
2023-04-07T22:28:46.485Z,102246.72
2023-04-07T22:31:14.254Z,102245.66
2023-04-07T22:33:41.932Z,102251.22
2023-04-07T22:36:09.721Z,102241.59
2023-04-07T22:38:37.343Z,102254.22
2023-04-07T22:41:06.434Z,102256.38
2023-04-07T22:43:34.072Z,102250.06
2023-04-07T22:46:01.839Z,102254.22
2023-04-07T22:48:29.455Z,102247.53
2023-04-07T22:50:57.225Z,102250.59
2023-04-07T22:53:24.922Z,102247.81
2023-04-07T22:55:52.575Z,102251.84
2023-04-07T22:58:21.544Z,102240.56
2023-04-07T23:00:49.176Z,102244.03
2023-04-07T23:03:17.044Z,102248.72
2023-04-07T23:05:44.810Z,102248.75
2023-04-07T23:08:12.425Z,102257.19
2023-04-07T23:10:40.020Z,102189.16
2023-04-07T23:13:07.737Z,102253.94
2023-04-07T23:15:36.802Z,102248.41
2023-04-07T23:18:04.454Z,102254.16
2023-04-07T23:20:32.159Z,102268.59
2023-04-07T23:22:59.803Z,102246.84
2023-04-07T23:25:27.604Z,102258.06
2023-04-07T23:27:55.349Z,102253.72
2023-04-07T23:30:22.996Z,102245.94
2023-04-07T23:32:52.057Z,102258.97
2023-04-07T23:35:19.929Z,102253.81
2023-04-07T23:37:47.581Z,102252.13
2023-04-07T23:40:15.577Z,102240.75
2023-04-07T23:42:43.247Z,102253.38
2023-04-07T23:45:11.749Z,102247.50
2023-04-07T23:47:39.446Z,102246.69
2023-04-07T23:50:09.874Z,102248.84
2023-04-07T23:52:37.523Z,102245.28
2023-04-07T23:55:05.823Z,102241.63
2023-04-07T23:57:33.474Z,102247.78
